createdAt,value
2022-11-18T00:00:56.689Z,96919.63
2022-11-18T00:03:23.975Z,96928.44
2022-11-18T00:05:57.946Z,96928.56
2022-11-18T00:08:26.080Z,96935.72
2022-11-18T00:10:54.247Z,96934.47
2022-11-18T00:13:39.586Z,96937.25
2022-11-18T00:16:12.069Z,96932.03
2022-11-18T00:18:39.393Z,96934.34
2022-11-18T00:21:09.366Z,96941.88
2022-11-18T00:23:36.770Z,96949.59
2022-11-18T00:26:13.998Z,96953.22
2022-11-18T00:28:41.911Z,96949.50
2022-11-18T00:31:11.749Z,96946.19
2022-11-18T00:33:39.557Z,96948.97
2022-11-18T00:36:09.413Z,96949.78
2022-11-18T00:38:36.583Z,96947.34
2022-11-18T00:41:08.955Z,96947.00
2022-11-18T00:43:36.672Z,96951.94
2022-11-18T00:46:05.464Z,96951.34
2022-11-18T00:48:32.615Z,96951.06
2022-11-18T00:51:10.834Z,96949.59
2022-11-18T00:53:37.993Z,96951.16
2022-11-18T00:56:05.318Z,96963.88
2022-11-18T00:58:32.192Z,96953.91
2022-11-18T01:00:59.514Z,96957.22
2022-11-18T01:03:28.696Z,96950.59
2022-11-18T01:05:55.648Z,96946.81
2022-11-18T01:08:23.066Z,96949.63
2022-11-18T01:10:50.929Z,96954.56
2022-11-18T01:13:19.807Z,96947.63
2022-11-18T01:15:52.677Z,96950.13
2022-11-18T01:18:25.497Z,96946.00
2022-11-18T01:20:52.849Z,96953.66
2022-11-18T01:23:20.942Z,96953.84
2022-11-18T01:25:49.847Z,96954.94
2022-11-18T01:28:23.269Z,96955.19
2022-11-18T01:30:51.334Z,96957.81
2022-11-18T01:33:18.535Z,96949.91
2022-11-18T01:35:45.574Z,96951.41
2022-11-18T01:38:14.232Z,96946.69
2022-11-18T01:40:41.959Z,96943.28
2022-11-18T01:43:15.912Z,96946.16
2022-11-18T01:45:45.405Z,96949.78
2022-11-18T01:48:26.970Z,96940.63
2022-11-18T01:51:06.328Z,96937.19
2022-11-18T01:53:38.610Z,96936.97
2022-11-18T01:56:13.369Z,96929.47
2022-11-18T01:59:09.281Z,96939.03
2022-11-18T02:01:36.461Z,96927.88
2022-11-18T02:04:04.123Z,96927.56
2022-11-18T02:06:31.122Z,96927.44
2022-11-18T02:08:58.184Z,96929.06
2022-11-18T02:11:43.487Z,96925.66
2022-11-18T02:14:12.283Z,96932.25
2022-11-18T02:16:42.091Z,96933.41
2022-11-18T02:19:37.712Z,96923.28
2022-11-18T02:22:19.650Z,96927.97
2022-11-18T02:25:07.798Z,96924.66
2022-11-18T02:28:12.057Z,96924.72
2022-11-18T02:31:11.138Z,96922.44
2022-11-18T02:33:49.103Z,96920.00
2022-11-18T02:36:29.691Z,96927.66
2022-11-18T02:39:03.470Z,96927.19
2022-11-18T02:41:33.986Z,96929.47
2022-11-18T02:44:24.844Z,96932.91
2022-11-18T02:46:57.086Z,96937.81
2022-11-18T02:49:32.361Z,96933.72
2022-11-18T02:52:00.819Z,96922.38
2022-11-18T02:54:29.392Z,96931.84
2022-11-18T02:56:58.081Z,96925.13
2022-11-18T02:59:28.443Z,96932.38
2022-11-18T03:01:55.369Z,96941.66
2022-11-18T03:04:24.407Z,96929.66
2022-11-18T03:07:02.884Z,96931.31
2022-11-18T03:09:39.336Z,96930.72
2022-11-18T03:12:24.673Z,96931.88
2022-11-18T03:15:16.581Z,96936.19
2022-11-18T03:18:07.488Z,96937.06
2022-11-18T03:20:41.979Z,96935.91
2022-11-18T03:23:22.167Z,96944.34
2022-11-18T03:25:54.970Z,96937.19
2022-11-18T03:28:39.477Z,96938.53
2022-11-18T03:31:38.783Z,96934.63
2022-11-18T03:34:12.709Z,96939.34
2022-11-18T03:36:48.849Z,96940.34
2022-11-18T03:39:21.271Z,96941.19
2022-11-18T03:42:02.713Z,96931.81
2022-11-18T03:44:32.723Z,96939.72
2022-11-18T03:47:05.074Z,96934.94
2022-11-18T03:49:46.587Z,96927.56
2022-11-18T03:52:19.011Z,96937.91
2022-11-18T03:54:50.364Z,96935.78
2022-11-18T03:57:27.094Z,96933.13
2022-11-18T03:59:53.852Z,96942.63
2022-11-18T04:02:24.970Z,96942.31
2022-11-18T04:04:54.246Z,96940.66
2022-11-18T04:07:36.078Z,96943.16
2022-11-18T04:10:23.293Z,96948.72
2022-11-18T04:12:53.957Z,96944.44
2022-11-18T04:15:21.002Z,96944.13
2022-11-18T04:17:47.966Z,96934.28
2022-11-18T04:20:21.293Z,96941.16
2022-11-18T04:22:48.614Z,96944.47
2022-11-18T04:25:16.020Z,96944.78
2022-11-18T04:27:42.984Z,96937.88
2022-11-18T04:30:10.618Z,96942.47
2022-11-18T04:32:37.614Z,96933.47
2022-11-18T04:35:04.663Z,96938.25
2022-11-18T04:37:31.600Z,96948.72
2022-11-18T04:39:58.625Z,96953.13
2022-11-18T04:42:25.699Z,96949.53
2022-11-18T04:44:52.590Z,96954.28
2022-11-18T04:47:19.546Z,96961.19
2022-11-18T04:49:46.560Z,96963.94
2022-11-18T04:52:14.024Z,96974.25
2022-11-18T04:54:40.960Z,96973.91
2022-11-18T04:57:08.113Z,96972.59
2022-11-18T04:59:34.997Z,96980.59
2022-11-18T05:02:02.203Z,96978.34
2022-11-18T05:04:32.077Z,96987.34
2022-11-18T05:07:00.730Z,96985.38
2022-11-18T05:09:31.785Z,96982.25
2022-11-18T05:12:18.274Z,96981.88
2022-11-18T05:14:49.545Z,96984.38
2022-11-18T05:17:16.925Z,96991.88
2022-11-18T05:19:43.792Z,96994.97
2022-11-18T05:22:10.659Z,96993.56
2022-11-18T05:24:37.564Z,96994.19
2022-11-18T05:27:04.593Z,96985.28
2022-11-18T05:29:31.740Z,96978.84
2022-11-18T05:31:58.603Z,96984.94
2022-11-18T05:34:25.634Z,96991.31
2022-11-18T05:36:52.554Z,96984.13
2022-11-18T05:39:19.822Z,96982.28
2022-11-18T05:42:05.555Z,96989.31
2022-11-18T05:44:32.497Z,96986.81
2022-11-18T05:47:00.372Z,96991.06
2022-11-18T05:49:27.496Z,96993.78
2022-11-18T05:51:54.318Z,96993.63
2022-11-18T05:54:22.115Z,96992.75
2022-11-18T05:56:49.354Z,97004.50
2022-11-18T05:59:16.942Z,97004.16
2022-11-18T06:01:58.419Z,96999.00
2022-11-18T06:04:45.540Z,97000.69
2022-11-18T06:07:18.883Z,97006.03
2022-11-18T06:09:50.979Z,97008.88
2022-11-18T06:12:21.740Z,97016.16
2022-11-18T06:15:02.657Z,97004.28
2022-11-18T06:17:40.407Z,97003.59
2022-11-18T06:20:08.097Z,97007.03
2022-11-18T06:22:35.789Z,97001.47
2022-11-18T06:25:03.357Z,96999.09
2022-11-18T06:27:31.158Z,97002.81
2022-11-18T06:29:58.107Z,97000.38
2022-11-18T06:32:24.990Z,97005.63
2022-11-18T06:34:51.933Z,97003.75
2022-11-18T06:37:23.122Z,97010.22
2022-11-18T06:39:50.060Z,97016.38
2022-11-18T06:42:36.904Z,97012.94
2022-11-18T06:45:05.131Z,97013.28
2022-11-18T06:47:32.179Z,97008.25
2022-11-18T06:49:59.165Z,97014.19
2022-11-18T06:52:26.114Z,97012.88
2022-11-18T06:54:52.996Z,97004.97
2022-11-18T06:57:19.934Z,97010.44
2022-11-18T06:59:46.932Z,97001.25
2022-11-18T07:02:13.895Z,96995.28
2022-11-18T07:04:41.492Z,97003.06
2022-11-18T07:07:08.611Z,96995.44
2022-11-18T07:09:37.029Z,96990.66
2022-11-18T07:12:04.674Z,96998.84
2022-11-18T07:14:31.929Z,96994.59
2022-11-18T07:16:58.857Z,96985.13
2022-11-18T07:19:25.747Z,96988.09
2022-11-18T07:21:52.983Z,96986.47
2022-11-18T07:24:19.841Z,96982.78
2022-11-18T07:26:46.965Z,96979.38
2022-11-18T07:29:13.836Z,96982.50
2022-11-18T07:31:41.039Z,96981.38
2022-11-18T07:34:08.198Z,96982.81
2022-11-18T07:36:36.232Z,96989.25
2022-11-18T07:39:06.276Z,96981.16
2022-11-18T07:41:34.390Z,96981.75
2022-11-18T07:44:02.940Z,96976.50
2022-11-18T07:46:35.732Z,96979.13
2022-11-18T07:49:05.822Z,96981.16
2022-11-18T07:51:35.190Z,96973.22
2022-11-18T07:54:05.831Z,96977.09
2022-11-18T07:56:32.774Z,96974.47
2022-11-18T07:58:59.633Z,96972.59
2022-11-18T08:01:31.263Z,96976.88
2022-11-18T08:04:04.757Z,96978.28
2022-11-18T08:06:34.222Z,96976.66
2022-11-18T08:09:01.622Z,96978.50
2022-11-18T08:11:28.702Z,96987.84
2022-11-18T08:13:55.653Z,96989.47
2022-11-18T08:16:24.706Z,96986.97
2022-11-18T08:18:52.653Z,96989.91
2022-11-18T08:21:21.491Z,96993.56
2022-11-18T08:23:53.351Z,96985.38
2022-11-18T08:26:20.812Z,96985.84
2022-11-18T08:28:48.612Z,96979.16
2022-11-18T08:31:21.126Z,96981.56
2022-11-18T08:33:48.323Z,96978.13
2022-11-18T08:36:21.331Z,96979.13
2022-11-18T08:38:48.343Z,96976.50
2022-11-18T08:41:19.866Z,96977.28
2022-11-18T08:43:46.794Z,96972.53
2022-11-18T08:46:13.812Z,96982.28
2022-11-18T08:48:40.743Z,96982.28
2022-11-18T08:51:11.655Z,96980.06
2022-11-18T08:53:38.925Z,96981.91
2022-11-18T08:56:06.435Z,96974.50
2022-11-18T08:58:33.506Z,96983.31
2022-11-18T09:01:06.637Z,96980.06
2022-11-18T09:03:33.823Z,96981.81
2022-11-18T09:06:10.701Z,96978.78
2022-11-18T09:08:38.493Z,96974.44
2022-11-18T09:11:13.010Z,96976.38
2022-11-18T09:16:29.915Z,96973.25
2022-11-18T09:19:02.092Z,96969.78
2022-11-18T09:21:41.125Z,96972.16
2022-11-18T09:24:08.567Z,96957.09
2022-11-18T09:26:35.491Z,96960.53
2022-11-18T09:29:02.608Z,96957.28
2022-11-18T09:31:29.606Z,96957.47
2022-11-18T09:33:58.805Z,96950.16
2022-11-18T09:36:26.576Z,96936.88
2022-11-18T09:38:53.769Z,96935.94
2022-11-18T09:41:46.659Z,96923.69
2022-11-18T09:44:22.265Z,96924.13
2022-11-18T10:17:56.747Z,96888.97
2022-11-18T10:20:47.189Z,96890.09
2022-11-18T10:23:24.314Z,96882.31
2022-11-18T10:25:53.246Z,96887.09
2022-11-18T10:28:31.446Z,96879.22
2022-11-18T10:31:07.656Z,96877.97
2022-11-18T10:33:35.069Z,96872.06
2022-11-18T10:36:17.175Z,96871.25
2022-11-18T10:38:49.765Z,96870.56
2022-11-18T10:41:20.775Z,96867.31
2022-11-18T10:43:51.633Z,96868.06
2022-11-18T10:46:28.939Z,96862.34
2022-11-18T10:49:10.899Z,96862.50
2022-11-18T10:51:46.565Z,96864.13
2022-11-18T10:54:13.439Z,96866.00
2022-11-18T10:56:48.845Z,96857.75
2022-11-18T10:59:36.368Z,96870.44
2022-11-18T11:02:15.834Z,96872.59
2022-11-18T11:04:44.015Z,96867.28
2022-11-18T11:07:35.188Z,96875.22
2022-11-18T11:10:04.969Z,96882.34
2022-11-18T11:12:37.696Z,96877.75
2022-11-18T11:15:21.898Z,96870.34
2022-11-18T11:18:16.799Z,96873.59
2022-11-18T11:20:44.743Z,96867.25
2022-11-18T11:23:16.692Z,96860.75
2022-11-18T11:29:13.689Z,96860.28
2022-11-18T11:31:58.957Z,96847.97
2022-11-18T11:34:31.772Z,96844.91
2022-11-18T11:37:14.603Z,96840.81
2022-11-18T11:40:12.302Z,96826.91
2022-11-18T11:42:42.091Z,96825.34
2022-11-18T11:45:36.421Z,96824.16
2022-11-18T11:48:06.345Z,96827.84
2022-11-18T11:51:01.580Z,96820.91
2022-11-18T11:53:44.697Z,96813.47
2022-11-18T11:56:32.484Z,96797.38
2022-11-18T11:59:23.828Z,96807.00
2022-11-18T12:01:50.667Z,96800.16
2022-11-18T12:04:36.237Z,96789.28
2022-11-18T12:07:05.425Z,96783.94
2022-11-18T12:09:39.656Z,96780.38
2022-11-18T12:12:36.933Z,96783.63
2022-11-18T12:15:41.230Z,96783.47
2022-11-18T12:18:30.546Z,96788.03
2022-11-18T12:20:57.564Z,96772.88
2022-11-18T12:23:29.417Z,96763.97
2022-11-18T12:26:03.378Z,96762.78
2022-11-18T12:28:41.520Z,96769.78
2022-11-18T12:31:23.572Z,96769.88
2022-11-18T12:34:01.299Z,96766.81
2022-11-18T12:36:36.985Z,96764.25
2022-11-18T12:39:25.817Z,96771.91
2022-11-18T12:42:15.729Z,96766.88
2022-11-18T12:44:44.526Z,96763.28
2022-11-18T12:47:13.373Z,96760.53
2022-11-18T12:49:46.449Z,96759.31
2022-11-18T12:52:31.778Z,96748.31
2022-11-18T12:55:31.816Z,96749.75
2022-11-18T12:57:58.719Z,96749.28
2022-11-18T13:00:25.711Z,96747.44
2022-11-18T13:02:58.192Z,96740.94
2022-11-18T13:05:32.384Z,96754.38
2022-11-18T13:08:14.529Z,96757.06
2022-11-18T13:10:44.110Z,96759.31
2022-11-18T13:13:27.644Z,96766.88
2022-11-18T13:16:16.146Z,96772.28
2022-11-18T13:18:51.272Z,96773.06
2022-11-18T13:21:46.118Z,96767.97
2022-11-18T13:24:14.739Z,96762.03
2022-11-18T13:26:44.823Z,96758.16
2022-11-18T13:30:01.198Z,96754.69
2022-11-18T13:32:29.476Z,96747.16
2022-11-18T13:34:59.586Z,96747.41
2022-11-18T13:37:29.457Z,96765.16
2022-11-18T13:39:56.770Z,96761.56
2022-11-18T13:42:28.681Z,96762.19
2022-11-18T13:45:02.898Z,96753.88
2022-11-18T13:47:29.862Z,96756.13
2022-11-18T13:49:56.655Z,96751.44
2022-11-18T13:52:44.407Z,96757.34
2022-11-18T13:55:52.064Z,96755.72
2022-11-18T13:58:18.908Z,96762.66
2022-11-18T14:00:57.790Z,96767.31
2022-11-18T14:03:46.398Z,96763.03
2022-11-18T14:06:24.801Z,96761.09
2022-11-18T14:08:53.127Z,96753.34
2022-11-18T14:11:38.161Z,96759.06
2022-11-18T14:14:05.315Z,96765.56
2022-11-18T14:16:40.450Z,96742.59
2022-11-18T14:19:26.563Z,96750.13
2022-11-18T14:22:23.318Z,96747.34
2022-11-18T14:25:15.645Z,96740.84
2022-11-18T14:27:49.393Z,96749.59
2022-11-18T14:30:41.701Z,96734.34
2022-11-18T14:33:08.539Z,96739.06
2022-11-18T14:35:35.556Z,96738.03
2022-11-18T14:41:00.117Z,96733.34
2022-11-18T14:43:27.604Z,96728.66
2022-11-18T14:45:58.221Z,96734.56
2022-11-18T14:48:32.126Z,96718.28
2022-11-18T14:51:00.362Z,96720.53
2022-11-18T14:53:27.597Z,96724.78
2022-11-18T14:55:58.726Z,96715.84
2022-11-18T14:58:25.823Z,96712.81
2022-11-18T15:00:53.274Z,96711.16
2022-11-18T15:03:20.319Z,96713.19
2022-11-18T15:05:47.298Z,96706.72
2022-11-18T15:08:14.285Z,96705.69
2022-11-18T15:10:41.211Z,96713.97
2022-11-18T15:13:08.150Z,96707.06
2022-11-18T15:15:35.269Z,96703.44
2022-11-18T15:18:02.221Z,96712.41
2022-11-18T15:20:29.166Z,96712.41
2022-11-18T15:22:56.268Z,96714.81
2022-11-18T15:25:23.174Z,96716.44
2022-11-18T15:27:50.139Z,96709.13
2022-11-18T15:30:17.250Z,96708.91
2022-11-18T15:32:44.250Z,96711.56
2022-11-18T15:35:13.395Z,96702.19
2022-11-18T15:37:41.295Z,96700.38
2022-11-18T15:40:08.982Z,96696.94
2022-11-18T15:42:42.476Z,96698.75
2022-11-18T15:45:15.965Z,96686.56
2022-11-18T15:47:42.796Z,96688.38
2022-11-18T15:50:10.714Z,96685.53
2022-11-18T15:52:37.727Z,96682.06
2022-11-18T15:55:08.049Z,96694.06
2022-11-18T15:57:35.295Z,96682.25
2022-11-18T16:00:02.463Z,96690.22
2022-11-18T16:02:39.144Z,96690.41
2022-11-18T16:05:06.591Z,96693.47
2022-11-18T16:07:33.514Z,96697.09
2022-11-18T16:10:19.046Z,96697.13
2022-11-18T16:12:48.981Z,96705.66
2022-11-18T16:15:35.373Z,96708.53
2022-11-18T16:18:03.768Z,96696.72
2022-11-18T16:20:30.808Z,96683.69
2022-11-18T16:22:57.904Z,96689.19
2022-11-18T16:25:25.926Z,96691.44
2022-11-18T16:27:53.106Z,96702.00
2022-11-18T16:30:38.828Z,96716.63
2022-11-18T16:33:05.771Z,96722.13
2022-11-18T16:35:32.964Z,96702.38
2022-11-18T16:37:59.942Z,96708.28
2022-11-18T16:40:28.610Z,96705.63
2022-11-18T16:42:55.712Z,96695.69
2022-11-18T16:45:22.652Z,96685.72
2022-11-18T16:47:49.600Z,96689.97
2022-11-18T16:50:16.778Z,96687.56
2022-11-18T16:52:43.626Z,96693.22
2022-11-18T16:55:10.548Z,96698.50
2022-11-18T16:57:37.542Z,96692.03
2022-11-18T17:00:05.435Z,96697.50
2022-11-18T17:02:32.549Z,96697.28
2022-11-18T17:04:59.518Z,96692.41
2022-11-18T17:07:26.595Z,96697.09
2022-11-18T17:09:53.540Z,96698.88
2022-11-18T17:12:20.490Z,96705.41
2022-11-18T17:14:47.332Z,96696.06
2022-11-18T17:17:14.330Z,96686.47
2022-11-18T17:19:41.440Z,96690.78
2022-11-18T17:22:08.305Z,96689.75
2022-11-18T17:24:35.236Z,96693.00
2022-11-18T17:27:02.257Z,96691.97
2022-11-18T17:29:29.152Z,96708.84
2022-11-18T17:31:56.373Z,96700.13
2022-11-18T17:34:23.322Z,96696.88
2022-11-18T17:36:50.555Z,96696.06
2022-11-18T17:39:18.913Z,96706.41
2022-11-18T17:42:04.729Z,96688.72
2022-11-18T17:44:31.661Z,96688.13
2022-11-18T17:46:58.627Z,96684.47
2022-11-18T17:49:25.660Z,96679.38
2022-11-18T17:51:52.598Z,96673.47
2022-11-18T17:54:20.866Z,96671.25
2022-11-18T17:56:48.643Z,96666.19
2022-11-18T17:59:17.499Z,96660.06
2022-11-18T18:01:47.948Z,96660.69
2022-11-18T18:04:20.377Z,96654.19
2022-11-18T18:06:52.933Z,96658.06
2022-11-18T18:09:26.886Z,96647.88
2022-11-18T18:11:58.217Z,96657.47
2022-11-18T18:14:25.136Z,96656.44
2022-11-18T18:16:52.080Z,96655.03
2022-11-18T18:19:21.256Z,96649.31
2022-11-18T18:21:48.390Z,96650.34
2022-11-18T18:24:17.562Z,96644.84
2022-11-18T18:26:44.942Z,96647.28
2022-11-18T18:29:12.614Z,96644.44
2022-11-18T18:31:39.828Z,96645.47
2022-11-18T18:34:06.798Z,96637.75
2022-11-18T18:36:34.401Z,96635.09
2022-11-18T18:39:02.492Z,96634.91
2022-11-18T18:41:30.489Z,96638.97
2022-11-18T18:43:57.560Z,96633.28
2022-11-18T18:46:29.900Z,96631.84
2022-11-18T18:49:10.949Z,96643.00
2022-11-18T18:51:43.221Z,96639.38
2022-11-18T18:54:11.919Z,96633.66
2022-11-18T18:56:38.945Z,96632.03
2022-11-18T18:59:07.278Z,96623.72
2022-11-18T19:01:35.003Z,96629.81
2022-11-18T19:04:04.864Z,96634.28
2022-11-18T19:09:26.680Z,96633.84
2022-11-18T19:12:12.696Z,96629.59
2022-11-18T19:14:39.839Z,96627.13
2022-11-18T19:17:11.392Z,96635.28
2022-11-18T19:19:59.523Z,96637.34
2022-11-18T19:22:30.888Z,96644.84
2022-11-18T19:24:58.563Z,96656.25
2022-11-18T19:27:26.280Z,96659.09
2022-11-18T19:29:53.197Z,96666.00
2022-11-18T19:32:20.233Z,96670.31
2022-11-18T19:34:47.134Z,96684.72
2022-11-18T19:37:14.047Z,96680.88
2022-11-18T19:39:40.941Z,96668.47
2022-11-18T19:42:08.051Z,96674.56
2022-11-18T19:44:34.918Z,96669.47
2022-11-18T19:47:01.852Z,96668.06
2022-11-18T19:49:28.804Z,96662.75
2022-11-18T19:51:55.736Z,96666.03
2022-11-18T19:54:23.660Z,96669.88
2022-11-18T19:56:50.708Z,96659.44
2022-11-18T19:59:17.932Z,96662.75
2022-11-18T20:01:45.236Z,96654.19
2022-11-18T20:04:12.287Z,96644.84
2022-11-18T20:06:40.257Z,96645.25
2022-11-18T20:09:09.047Z,96650.34
2022-11-18T20:11:36.599Z,96647.25
2022-11-18T20:14:03.552Z,96648.88
2022-11-18T20:16:30.795Z,96654.63
2022-11-18T20:19:02.912Z,96655.38
2022-11-18T20:21:34.451Z,96643.16
2022-11-18T20:24:03.483Z,96649.69
2022-11-18T20:26:40.285Z,96636.28
2022-11-18T20:29:08.264Z,96637.00
2022-11-18T20:31:37.385Z,96617.78
2022-11-18T20:34:05.268Z,96618.34
2022-11-18T20:36:35.683Z,96625.25
2022-11-18T20:39:14.647Z,96625.00
2022-11-18T20:41:42.227Z,96613.56
2022-11-18T20:44:09.187Z,96615.19
2022-11-18T20:46:36.064Z,96619.00
2022-11-18T20:49:03.399Z,96617.00
2022-11-18T20:51:30.339Z,96621.09
2022-11-18T20:53:58.606Z,96632.31
2022-11-18T20:56:27.495Z,96637.00
2022-11-18T20:58:57.017Z,96633.53
2022-11-18T21:01:27.201Z,96642.91
2022-11-18T21:03:59.385Z,96644.75
2022-11-18T21:06:29.386Z,96649.59
2022-11-18T21:09:00.233Z,96641.66
2022-11-18T21:11:27.945Z,96646.38
2022-11-18T21:14:16.021Z,96657.13
2022-11-18T21:16:46.482Z,96661.34
2022-11-18T21:19:13.920Z,96664.84
2022-11-18T21:21:48.866Z,96653.84
2022-11-18T21:24:19.779Z,96662.81
2022-11-18T21:26:48.876Z,96674.38
2022-11-18T21:29:17.680Z,96673.81
2022-11-18T21:31:47.066Z,96673.00
2022-11-18T21:34:15.534Z,96664.00
2022-11-18T21:36:45.982Z,96673.56
2022-11-18T21:39:15.560Z,96669.31
2022-11-18T21:41:43.473Z,96676.47
2022-11-18T21:44:12.745Z,96675.00
2022-11-18T21:46:41.457Z,96678.66
2022-11-18T21:49:08.625Z,96683.38
2022-11-18T21:51:35.973Z,96688.69
2022-11-18T21:54:03.141Z,96687.50
2022-11-18T21:56:31.482Z,96693.19
2022-11-18T21:59:01.312Z,96689.50
2022-11-18T22:01:33.542Z,96673.59
2022-11-18T22:04:03.128Z,96679.75
2022-11-18T22:06:33.902Z,96687.28
2022-11-18T22:09:02.574Z,96684.66
2022-11-18T22:11:29.440Z,96670.06
2022-11-18T22:13:56.322Z,96672.25
2022-11-18T22:16:24.803Z,96670.44
2022-11-18T22:18:59.188Z,96668.78
2022-11-18T22:21:29.400Z,96654.00
2022-11-18T22:24:00.917Z,96656.44
2022-11-18T22:26:28.794Z,96659.50
2022-11-18T22:28:57.383Z,96671.31
2022-11-18T22:31:26.650Z,96666.78
2022-11-18T22:33:55.594Z,96664.38
2022-11-18T22:36:25.586Z,96669.25
2022-11-18T22:38:53.944Z,96658.91
2022-11-18T22:41:42.423Z,96660.28
2022-11-18T22:44:10.549Z,96660.50
2022-11-18T22:46:38.895Z,96655.44
2022-11-18T22:49:07.538Z,96658.28
2022-11-18T22:51:35.983Z,96663.56
2022-11-18T22:54:31.235Z,96657.25
2022-11-18T22:56:50.853Z,96665.78
2022-11-18T22:59:18.050Z,96670.69
2022-11-18T23:01:45.188Z,96680.25
2022-11-18T23:04:12.033Z,96679.88
2022-11-18T23:06:39.098Z,96665.78
2022-11-18T23:09:06.111Z,96664.59
2022-11-18T23:11:51.445Z,96670.88
2022-11-18T23:14:18.334Z,96676.59
2022-11-18T23:16:45.291Z,96675.97
2022-11-18T23:19:14.644Z,96684.72
2022-11-18T23:21:42.916Z,96694.06
2022-11-18T23:24:14.599Z,96682.28
2022-11-18T23:26:42.205Z,96685.53
2022-11-18T23:29:10.426Z,96685.53
2022-11-18T23:31:40.874Z,96689.63
2022-11-18T23:34:07.774Z,96690.59
2022-11-18T23:36:34.622Z,96706.09
2022-11-18T23:39:01.471Z,96703.47
2022-11-18T23:41:28.363Z,96694.28
2022-11-18T23:43:55.224Z,96705.28
2022-11-18T23:46:22.065Z,96705.06
2022-11-18T23:48:49.219Z,96704.06
2022-11-18T23:51:20.945Z,96703.84
2022-11-18T23:53:52.655Z,96705.44
2022-11-18T23:56:21.044Z,96710.97
2022-11-18T23:58:50.234Z,96709.97
